sensor_id;sensor_type;location;lat;lon;timestamp;pressure;altitude;pressure_sealevel;temperature;humidity
4273;BME280;63887;53.656;9.810;2022-12-07T00:01:04;101290.31;;;2.59;97.48
4273;BME280;63887;53.656;9.810;2022-12-07T00:03:30;101279.09;;;2.58;97.61
4273;BME280;63887;53.656;9.810;2022-12-07T00:05:57;101273.97;;;2.55;97.67
4273;BME280;63887;53.656;9.810;2022-12-07T00:08:23;101275.72;;;2.53;97.69
4273;BME280;63887;53.656;9.810;2022-12-07T00:10:49;101279.16;;;2.51;98.01
4273;BME280;63887;53.656;9.810;2022-12-07T00:13:17;101284.34;;;2.51;98.13
4273;BME280;63887;53.656;9.810;2022-12-07T00:15:43;101275.72;;;2.52;98.25
4273;BME280;63887;53.656;9.810;2022-12-07T00:18:10;101277.44;;;2.54;97.89
4273;BME280;63887;53.656;9.810;2022-12-07T00:20:36;101281.69;;;2.57;97.89
4273;BME280;63887;53.656;9.810;2022-12-07T00:23:02;101265.28;;;2.58;98.08
4273;BME280;63887;53.656;9.810;2022-12-07T00:25:29;101263.69;;;2.48;97.65
4273;BME280;63887;53.656;9.810;2022-12-07T00:27:56;101271.44;;;2.48;97.99
4273;BME280;63887;53.656;9.810;2022-12-07T00:30:24;101263.72;;;2.46;97.80
4273;BME280;63887;53.656;9.810;2022-12-07T00:32:50;101274.91;;;2.47;97.98
4273;BME280;63887;53.656;9.810;2022-12-07T00:35:16;101264.41;;;2.59;97.73
4273;BME280;63887;53.656;9.810;2022-12-07T00:37:43;101259.34;;;2.50;97.46
4273;BME280;63887;53.656;9.810;2022-12-07T00:40:09;101261.94;;;2.48;97.98
4273;BME280;63887;53.656;9.810;2022-12-07T00:42:36;101262.75;;;2.52;98.32
4273;BME280;63887;53.656;9.810;2022-12-07T00:45:02;101265.16;;;2.68;97.72
4273;BME280;63887;53.656;9.810;2022-12-07T00:47:30;101253.91;;;2.69;97.60
4273;BME280;63887;53.656;9.810;2022-12-07T00:49:56;101253.03;;;2.67;97.33
4273;BME280;63887;53.656;9.810;2022-12-07T00:52:23;101244.38;;;2.72;97.34
4273;BME280;63887;53.656;9.810;2022-12-07T00:54:49;101242.69;;;2.67;97.61
4273;BME280;63887;53.656;9.810;2022-12-07T00:57:16;101238.38;;;2.69;97.18
4273;BME280;63887;53.656;9.810;2022-12-07T00:59:42;101241.03;;;2.62;97.46
4273;BME280;63887;53.656;9.810;2022-12-07T01:02:08;101235.78;;;2.69;97.15
4273;BME280;63887;53.656;9.810;2022-12-07T01:04:36;101233.22;;;2.68;97.43
4273;BME280;63887;53.656;9.810;2022-12-07T01:07:02;101238.44;;;2.63;97.57
4273;BME280;63887;53.656;9.810;2022-12-07T01:09:29;101229.75;;;2.69;97.15
4273;BME280;63887;53.656;9.810;2022-12-07T01:11:55;101226.31;;;2.65;97.35
4273;BME280;63887;53.656;9.810;2022-12-07T01:14:22;101231.66;;;2.56;97.30
4273;BME280;63887;53.656;9.810;2022-12-07T01:16:48;101223.00;;;2.57;97.34
4273;BME280;63887;53.656;9.810;2022-12-07T01:19:14;101234.34;;;2.47;97.41
4273;BME280;63887;53.656;9.810;2022-12-07T01:21:42;101224.09;;;2.38;97.72
4273;BME280;63887;53.656;9.810;2022-12-07T01:24:09;101220.66;;;2.37;97.63
4273;BME280;63887;53.656;9.810;2022-12-07T01:26:36;101222.38;;;2.40;97.87
4273;BME280;63887;53.656;9.810;2022-12-07T01:29:03;101223.25;;;2.39;98.11
4273;BME280;63887;53.656;9.810;2022-12-07T01:31:29;101222.28;;;2.46;97.92
4273;BME280;63887;53.656;9.810;2022-12-07T01:33:56;101220.56;;;2.45;97.61
4273;BME280;63887;53.656;9.810;2022-12-07T01:36:24;101221.34;;;2.50;97.67
4273;BME280;63887;53.656;9.810;2022-12-07T01:38:54;101217.25;;;2.35;97.62
4273;BME280;63887;53.656;9.810;2022-12-07T01:41:21;101215.66;;;2.27;97.75
4273;BME280;63887;53.656;9.810;2022-12-07T01:46:48;101215.72;;;2.21;98.24
4273;BME280;63887;53.656;9.810;2022-12-07T01:49:20;101220.13;;;2.14;97.85
4273;BME280;63887;53.656;9.810;2022-12-07T01:51:47;101210.72;;;2.05;97.82
4273;BME280;63887;53.656;9.810;2022-12-07T01:54:16;101222.84;;;2.02;98.15
4273;BME280;63887;53.656;9.810;2022-12-07T01:56:45;101215.16;;;1.97;98.50
4273;BME280;63887;53.656;9.810;2022-12-07T01:59:13;101211.75;;;1.94;97.97
4273;BME280;63887;53.656;9.810;2022-12-07T02:01:39;101223.75;;;2.01;97.98
4273;BME280;63887;53.656;9.810;2022-12-07T02:04:05;101211.69;;;1.98;98.17
4273;BME280;63887;53.656;9.810;2022-12-07T02:06:32;101226.41;;;1.93;98.08
4273;BME280;63887;53.656;9.810;2022-12-07T02:08:59;101217.84;;;1.88;98.17
4273;BME280;63887;53.656;9.810;2022-12-07T02:11:27;101223.69;;;2.04;98.04
4273;BME280;63887;53.656;9.810;2022-12-07T02:13:53;101220.19;;;2.08;98.18
4273;BME280;63887;53.656;9.810;2022-12-07T02:16:23;101225.44;;;2.03;97.86
4273;BME280;63887;53.656;9.810;2022-12-07T02:19:01;101221.97;;;2.03;97.55
4273;BME280;63887;53.656;9.810;2022-12-07T02:21:34;101218.59;;;1.98;97.93
4273;BME280;63887;53.656;9.810;2022-12-07T02:24:10;101222.09;;;1.92;97.97
4273;BME280;63887;53.656;9.810;2022-12-07T02:26:53;101212.59;;;1.93;97.69
4273;BME280;63887;53.656;9.810;2022-12-07T02:29:23;101221.31;;;1.87;97.77
4273;BME280;63887;53.656;9.810;2022-12-07T02:31:53;101211.91;;;1.82;97.81
4273;BME280;63887;53.656;9.810;2022-12-07T02:34:22;101216.22;;;1.81;97.90
4273;BME280;63887;53.656;9.810;2022-12-07T02:36:52;101210.25;;;1.74;97.82
4273;BME280;63887;53.656;9.810;2022-12-07T02:39:22;101211.91;;;1.78;98.12
4273;BME280;63887;53.656;9.810;2022-12-07T02:41:51;101201.59;;;1.77;97.62
4273;BME280;63887;53.656;9.810;2022-12-07T02:44:20;101217.94;;;1.81;97.32
4273;BME280;63887;53.656;9.810;2022-12-07T02:46:51;101213.47;;;1.93;96.94
4273;BME280;63887;53.656;9.810;2022-12-07T02:49:19;101213.44;;;1.96;96.63
4273;BME280;63887;53.656;9.810;2022-12-07T02:51:47;101219.63;;;1.85;96.74
4273;BME280;63887;53.656;9.810;2022-12-07T02:54:15;101218.81;;;1.79;96.66
4273;BME280;63887;53.656;9.810;2022-12-07T02:56:44;101218.75;;;1.86;96.58
4273;BME280;63887;53.656;9.810;2022-12-07T02:59:13;101209.34;;;1.77;96.80
4273;BME280;63887;53.656;9.810;2022-12-07T03:01:44;101212.75;;;1.82;96.46
4273;BME280;63887;53.656;9.810;2022-12-07T03:04:21;101219.69;;;1.80;96.51
4273;BME280;63887;53.656;9.810;2022-12-07T03:06:51;101217.00;;;1.88;95.89
4273;BME280;63887;53.656;9.810;2022-12-07T03:09:20;101221.41;;;1.81;96.14
4273;BME280;63887;53.656;9.810;2022-12-07T03:11:50;101216.28;;;1.75;95.97
4273;BME280;63887;53.656;9.810;2022-12-07T03:14:19;101216.25;;;1.79;95.54
4273;BME280;63887;53.656;9.810;2022-12-07T03:16:47;101218.84;;;1.76;95.88
4273;BME280;63887;53.656;9.810;2022-12-07T03:19:17;101217.09;;;1.77;96.05
4273;BME280;63887;53.656;9.810;2022-12-07T03:21:47;101217.00;;;1.86;96.18
4273;BME280;63887;53.656;9.810;2022-12-07T03:24:17;101211.94;;;1.80;95.50
4273;BME280;63887;53.656;9.810;2022-12-07T03:26:44;101214.53;;;1.75;95.66
4273;BME280;63887;53.656;9.810;2022-12-07T03:29:14;101211.09;;;1.75;95.53
4273;BME280;63887;53.656;9.810;2022-12-07T03:31:44;101223.16;;;1.76;95.80
4273;BME280;63887;53.656;9.810;2022-12-07T03:34:14;101220.56;;;1.76;95.74
4273;BME280;63887;53.656;9.810;2022-12-07T03:36:43;101221.47;;;1.73;96.10
4273;BME280;63887;53.656;9.810;2022-12-07T03:39:16;101228.31;;;1.79;95.40
4273;BME280;63887;53.656;9.810;2022-12-07T03:41:45;101223.06;;;1.85;95.40
4273;BME280;63887;53.656;9.810;2022-12-07T03:44:12;101217.94;;;1.81;95.37
4273;BME280;63887;53.656;9.810;2022-12-07T03:46:42;101221.31;;;1.87;95.30
4273;BME280;63887;53.656;9.810;2022-12-07T03:49:11;101215.44;;;1.73;95.13
4273;BME280;63887;53.656;9.810;2022-12-07T03:51:40;101221.41;;;1.78;95.32
4273;BME280;63887;53.656;9.810;2022-12-07T03:54:10;101221.41;;;1.78;95.06
4273;BME280;63887;53.656;9.810;2022-12-07T03:56:40;101225.72;;;1.81;95.60
4273;BME280;63887;53.656;9.810;2022-12-07T03:59:06;101218.81;;;1.81;94.96
4273;BME280;63887;53.656;9.810;2022-12-07T04:01:33;101228.41;;;1.70;95.32
4273;BME280;63887;53.656;9.810;2022-12-07T04:03:59;101232.81;;;1.60;95.66
4273;BME280;63887;53.656;9.810;2022-12-07T04:06:26;101229.34;;;1.61;95.31
4273;BME280;63887;53.656;9.810;2022-12-07T04:08:52;101222.47;;;1.59;95.51
4273;BME280;63887;53.656;9.810;2022-12-07T04:11:18;101226.75;;;1.61;95.39
4273;BME280;63887;53.656;9.810;2022-12-07T04:13:46;101225.97;;;1.55;95.55
4273;BME280;63887;53.656;9.810;2022-12-07T04:16:30;101220.78;;;1.56;95.86
4273;BME280;63887;53.656;9.810;2022-12-07T04:18:56;101223.41;;;1.55;95.75
4273;BME280;63887;53.656;9.810;2022-12-07T04:21:22;101221.66;;;1.57;95.50
4273;BME280;63887;53.656;9.810;2022-12-07T04:23:49;101226.81;;;1.57;95.30
4273;BME280;63887;53.656;9.810;2022-12-07T04:26:15;101225.09;;;1.57;94.77
4273;BME280;63887;53.656;9.810;2022-12-07T04:28:42;101221.59;;;1.61;95.00
4273;BME280;63887;53.656;9.810;2022-12-07T04:31:09;101220.81;;;1.55;95.13
4273;BME280;63887;53.656;9.810;2022-12-07T04:33:36;101219.94;;;1.56;95.19
4273;BME280;63887;53.656;9.810;2022-12-07T04:36:02;101220.00;;;1.51;95.22
4273;BME280;63887;53.656;9.810;2022-12-07T04:38:28;101220.88;;;1.47;94.63
4273;BME280;63887;53.656;9.810;2022-12-07T04:40:55;101223.47;;;1.45;94.88
4273;BME280;63887;53.656;9.810;2022-12-07T04:43:21;101219.22;;;1.40;95.17
4273;BME280;63887;53.656;9.810;2022-12-07T04:45:48;101223.59;;;1.36;95.47
4273;BME280;63887;53.656;9.810;2022-12-07T04:48:17;101224.47;;;1.32;95.10
4273;BME280;63887;53.656;9.810;2022-12-07T04:50:43;101223.66;;;1.26;95.22
4273;BME280;63887;53.656;9.810;2022-12-07T04:53:09;101220.25;;;1.24;95.11
4273;BME280;63887;53.656;9.810;2022-12-07T04:55:36;101226.28;;;1.24;95.45
4273;BME280;63887;53.656;9.810;2022-12-07T04:58:02;101220.28;;;1.22;95.20
4273;BME280;63887;53.656;9.810;2022-12-07T05:00:28;101210.78;;;1.23;95.96
4273;BME280;63887;53.656;9.810;2022-12-07T05:02:54;101215.94;;;1.24;95.35
4273;BME280;63887;53.656;9.810;2022-12-07T05:05:22;101212.44;;;1.30;95.00
4273;BME280;63887;53.656;9.810;2022-12-07T05:07:49;101207.25;;;1.30;95.54
4273;BME280;63887;53.656;9.810;2022-12-07T05:10:15;101216.72;;;1.31;94.81
4273;BME280;63887;53.656;9.810;2022-12-07T05:12:42;101212.44;;;1.30;95.02
4273;BME280;63887;53.656;9.810;2022-12-07T05:15:08;101217.59;;;1.30;94.30
4273;BME280;63887;53.656;9.810;2022-12-07T05:17:35;101218.50;;;1.26;94.70
4273;BME280;63887;53.656;9.810;2022-12-07T05:20:01;101215.91;;;1.26;94.50
4273;BME280;63887;53.656;9.810;2022-12-07T05:22:29;101212.50;;;1.19;94.70
4273;BME280;63887;53.656;9.810;2022-12-07T05:24:55;101213.38;;;1.18;95.17
4273;BME280;63887;53.656;9.810;2022-12-07T05:27:22;101217.72;;;1.14;94.84
4273;BME280;63887;53.656;9.810;2022-12-07T05:29:49;101218.66;;;1.09;95.04
4273;BME280;63887;53.656;9.810;2022-12-07T05:32:15;101210.81;;;1.18;95.66
4273;BME280;63887;53.656;9.810;2022-12-07T05:34:42;101209.91;;;1.24;95.58
4273;BME280;63887;53.656;9.810;2022-12-07T05:37:08;101207.28;;;1.27;95.49
4273;BME280;63887;53.656;9.810;2022-12-07T05:39:36;101202.19;;;1.22;95.47
4273;BME280;63887;53.656;9.810;2022-12-07T05:42:05;101209.94;;;1.19;95.26
4273;BME280;63887;53.656;9.810;2022-12-07T05:44:38;101205.63;;;1.18;94.47
4273;BME280;63887;53.656;9.810;2022-12-07T05:47:04;101207.38;;;1.21;94.59
4273;BME280;63887;53.656;9.810;2022-12-07T05:49:32;101205.63;;;1.18;95.40
4273;BME280;63887;53.656;9.810;2022-12-07T05:51:59;101203.94;;;1.17;94.64
4273;BME280;63887;53.656;9.810;2022-12-07T05:54:25;101211.72;;;1.12;94.39
4273;BME280;63887;53.656;9.810;2022-12-07T05:56:53;101200.56;;;1.10;94.79
4273;BME280;63887;53.656;9.810;2022-12-07T05:59:20;101207.41;;;1.13;93.88
4273;BME280;63887;53.656;9.810;2022-12-07T06:01:48;101199.69;;;1.10;94.17
4273;BME280;63887;53.656;9.810;2022-12-07T06:04:14;101208.31;;;1.09;94.71
4273;BME280;63887;53.656;9.810;2022-12-07T06:06:40;101206.63;;;1.03;94.07
4273;BME280;63887;53.656;9.810;2022-12-07T06:09:07;101207.53;;;0.98;94.33
4273;BME280;63887;53.656;9.810;2022-12-07T06:11:33;101208.44;;;0.95;94.84
4273;BME280;63887;53.656;9.810;2022-12-07T06:14:19;101204.13;;;0.94;94.71
4273;BME280;63887;53.656;9.810;2022-12-07T06:16:45;101215.34;;;0.93;94.90
4273;BME280;63887;53.656;9.810;2022-12-07T06:19:12;101203.28;;;0.94;95.34
4273;BME280;63887;53.656;9.810;2022-12-07T06:21:38;101199.88;;;0.90;94.95
4273;BME280;63887;53.656;9.810;2022-12-07T06:24:05;101202.44;;;0.88;95.12
4273;BME280;63887;53.656;9.810;2022-12-07T06:26:32;101194.66;;;0.96;95.13
4273;BME280;63887;53.656;9.810;2022-12-07T06:28:58;101199.78;;;0.99;95.15
4273;BME280;63887;53.656;9.810;2022-12-07T06:31:26;101198.03;;;1.03;95.21
4273;BME280;63887;53.656;9.810;2022-12-07T06:33:56;101197.13;;;1.08;95.39
4273;BME280;63887;53.656;9.810;2022-12-07T06:36:22;101191.13;;;1.08;95.22
4273;BME280;63887;53.656;9.810;2022-12-07T06:38:49;101193.69;;;1.08;95.44
4273;BME280;63887;53.656;9.810;2022-12-07T06:41:15;101197.03;;;1.21;95.38
4273;BME280;63887;53.656;9.810;2022-12-07T06:43:41;101197.03;;;1.21;94.97
4273;BME280;63887;53.656;9.810;2022-12-07T06:46:08;101197.03;;;1.17;95.19
4273;BME280;63887;53.656;9.810;2022-12-07T06:48:35;101197.91;;;1.16;95.43
4273;BME280;63887;53.656;9.810;2022-12-07T06:51:02;101198.75;;;1.20;95.18
4273;BME280;63887;53.656;9.810;2022-12-07T06:53:28;101192.72;;;1.18;95.87
4273;BME280;63887;53.656;9.810;2022-12-07T06:55:55;101195.31;;;1.16;95.84
4273;BME280;63887;53.656;9.810;2022-12-07T06:58:21;101196.16;;;1.22;95.55
4273;BME280;63887;53.656;9.810;2022-12-07T07:00:47;101197.91;;;1.16;96.33
4273;BME280;63887;53.656;9.810;2022-12-07T07:03:14;101199.59;;;1.19;96.19
4273;BME280;63887;53.656;9.810;2022-12-07T07:05:42;101203.00;;;1.26;96.05
4273;BME280;63887;53.656;9.810;2022-12-07T07:08:08;101204.69;;;1.28;95.72
4273;BME280;63887;53.656;9.810;2022-12-07T07:10:35;101212.44;;;1.30;95.47
4273;BME280;63887;53.656;9.810;2022-12-07T07:13:02;101215.06;;;1.25;96.01
4273;BME280;63887;53.656;9.810;2022-12-07T07:15:28;101208.16;;;1.26;96.14
4273;BME280;63887;53.656;9.810;2022-12-07T07:17:55;101210.69;;;1.30;95.71
4273;BME280;63887;53.656;9.810;2022-12-07T07:20:21;101209.84;;;1.30;96.02
4273;BME280;63887;53.656;9.810;2022-12-07T07:22:49;101211.56;;;1.29;95.70
4273;BME280;63887;53.656;9.810;2022-12-07T07:25:16;101209.00;;;1.29;96.05
4273;BME280;63887;53.656;9.810;2022-12-07T07:27:42;101216.69;;;1.37;95.82
4273;BME280;63887;53.656;9.810;2022-12-07T07:30:08;101212.34;;;1.39;95.44
4273;BME280;63887;53.656;9.810;2022-12-07T07:32:35;101208.09;;;1.35;95.39
4273;BME280;63887;53.656;9.810;2022-12-07T07:35:01;101202.94;;;1.30;95.27
4273;BME280;63887;53.656;9.810;2022-12-07T07:37:28;101212.41;;;1.34;95.61
4273;BME280;63887;53.656;9.810;2022-12-07T07:39:55;101216.66;;;1.38;95.55
4273;BME280;63887;53.656;9.810;2022-12-07T07:42:22;101213.19;;;1.41;95.57
4273;BME280;63887;53.656;9.810;2022-12-07T07:44:48;101219.22;;;1.41;95.19
4273;BME280;63887;53.656;9.810;2022-12-07T07:47:15;101223.44;;;1.48;95.07
4273;BME280;63887;53.656;9.810;2022-12-07T07:49:41;101220.84;;;1.48;94.58
4273;BME280;63887;53.656;9.810;2022-12-07T07:52:07;101222.63;;;1.43;95.11
4273;BME280;63887;53.656;9.810;2022-12-07T07:54:34;101220.88;;;1.45;94.58
4273;BME280;63887;53.656;9.810;2022-12-07T07:57:01;101225.94;;;1.58;94.50
4273;BME280;63887;53.656;9.810;2022-12-07T07:59:28;101225.16;;;1.51;94.63
4273;BME280;63887;53.656;9.810;2022-12-07T08:01:54;101230.25;;;1.57;94.58
4273;BME280;63887;53.656;9.810;2022-12-07T08:04:20;101229.34;;;1.61;94.49
4273;BME280;63887;53.656;9.810;2022-12-07T08:06:47;101224.16;;;1.66;93.65
4273;BME280;63887;53.656;9.810;2022-12-07T08:09:13;101228.44;;;1.67;94.31
4273;BME280;63887;53.656;9.810;2022-12-07T08:11:39;101221.56;;;1.66;94.03
4273;BME280;63887;53.656;9.810;2022-12-07T08:14:07;101221.56;;;1.66;94.08
4273;BME280;63887;53.656;9.810;2022-12-07T08:16:33;101225.03;;;1.65;94.28
4273;BME280;63887;53.656;9.810;2022-12-07T08:18:59;101221.59;;;1.60;94.14
4273;BME280;63887;53.656;9.810;2022-12-07T08:21:26;101229.38;;;1.60;94.80
4273;BME280;63887;53.656;9.810;2022-12-07T08:23:52;101227.56;;;1.68;94.17
4273;BME280;63887;53.656;9.810;2022-12-07T08:26:18;101227.50;;;1.74;93.86
4273;BME280;63887;53.656;9.810;2022-12-07T08:28:45;101229.25;;;1.72;94.18
4273;BME280;63887;53.656;9.810;2022-12-07T08:31:13;101226.69;;;1.70;94.02
4273;BME280;63887;53.656;9.810;2022-12-07T08:33:40;101230.88;;;1.81;94.18
4273;BME280;63887;53.656;9.810;2022-12-07T08:36:07;101227.44;;;1.78;94.55
4273;BME280;63887;53.656;9.810;2022-12-07T08:38:34;101223.91;;;1.87;94.34
4273;BME280;63887;53.656;9.810;2022-12-07T08:41:01;101229.13;;;1.84;93.94
4273;BME280;63887;53.656;9.810;2022-12-07T08:43:27;101218.69;;;1.89;93.88
4273;BME280;63887;53.656;9.810;2022-12-07T08:45:54;101225.72;;;1.81;94.45
4273;BME280;63887;53.656;9.810;2022-12-07T08:48:26;101220.50;;;1.84;94.60
4273;BME280;63887;53.656;9.810;2022-12-07T08:50:53;101229.13;;;1.84;94.65
4273;BME280;63887;53.656;9.810;2022-12-07T08:53:20;101230.78;;;1.88;94.24
4273;BME280;63887;53.656;9.810;2022-12-07T08:55:46;101228.13;;;1.94;94.15
4273;BME280;63887;53.656;9.810;2022-12-07T08:58:13;101234.13;;;1.98;94.30
4273;BME280;63887;53.656;9.810;2022-12-07T09:00:39;101235.84;;;1.99;94.26
4273;BME280;63887;53.656;9.810;2022-12-07T09:03:06;101235.69;;;2.11;93.99
4273;BME280;63887;53.656;9.810;2022-12-07T09:05:33;101240.06;;;2.04;94.29
4273;BME280;63887;53.656;9.810;2022-12-07T09:08:00;101233.13;;;2.08;94.01
4273;BME280;63887;53.656;9.810;2022-12-07T09:10:27;101234.72;;;2.18;94.05
4273;BME280;63887;53.656;9.810;2022-12-07T09:12:54;101236.41;;;2.22;93.62
4273;BME280;63887;53.656;9.810;2022-12-07T09:15:20;101243.34;;;2.19;94.07
4273;BME280;63887;53.656;9.810;2022-12-07T09:17:46;101243.16;;;2.34;93.34
4273;BME280;63887;53.656;9.810;2022-12-07T09:20:13;101231.03;;;2.39;93.41
4273;BME280;63887;53.656;9.810;2022-12-07T09:22:40;101235.44;;;2.31;93.00
4273;BME280;63887;53.656;9.810;2022-12-07T09:25:07;101235.31;;;2.42;93.30
4273;BME280;63887;53.656;9.810;2022-12-07T09:27:33;101244.59;;;2.56;92.70
4273;BME280;63887;53.656;9.810;2022-12-07T09:30:00;101243.75;;;2.53;92.63
4273;BME280;63887;53.656;9.810;2022-12-07T09:32:26;101238.34;;;2.71;92.16
4273;BME280;63887;53.656;9.810;2022-12-07T09:34:52;101240.13;;;2.66;91.76
4273;BME280;63887;53.656;9.810;2022-12-07T09:37:19;101234.63;;;2.87;91.27
4273;BME280;63887;53.656;9.810;2022-12-07T09:39:46;101239.72;;;2.92;91.30
4273;BME280;63887;53.656;9.810;2022-12-07T09:42:17;101242.38;;;2.89;91.23
4273;BME280;63887;53.656;9.810;2022-12-07T09:44:50;101239.66;;;2.98;91.07
4273;BME280;63887;53.656;9.810;2022-12-07T09:47:16;101236.84;;;3.10;90.53
4273;BME280;63887;53.656;9.810;2022-12-07T09:49:42;101232.88;;;2.89;91.31
4273;BME280;63887;53.656;9.810;2022-12-07T09:52:17;101230.13;;;3.00;91.08
4273;BME280;63887;53.656;9.810;2022-12-07T09:54:45;101233.38;;;3.13;90.62
4273;BME280;63887;53.656;9.810;2022-12-07T09:57:13;101227.22;;;3.18;90.75
4273;BME280;63887;53.656;9.810;2022-12-07T09:59:40;101228.00;;;3.23;89.73
4273;BME280;63887;53.656;9.810;2022-12-07T10:02:19;101222.91;;;3.19;89.89
4273;BME280;63887;53.656;9.810;2022-12-07T10:04:48;101222.66;;;3.33;89.50
4273;BME280;63887;53.656;9.810;2022-12-07T10:07:14;101219.97;;;3.37;88.58
4273;BME280;63887;53.656;9.810;2022-12-07T10:09:40;101220.09;;;3.31;88.76
4273;BME280;63887;53.656;9.810;2022-12-07T10:12:08;101217.31;;;3.40;88.81
4273;BME280;63887;53.656;9.810;2022-12-07T10:14:37;101226.19;;;3.28;89.24
4273;BME280;63887;53.656;9.810;2022-12-07T10:17:17;101217.47;;;3.33;88.81
4273;BME280;63887;53.656;9.810;2022-12-07T10:20:00;101219.25;;;3.31;88.83
4273;BME280;63887;53.656;9.810;2022-12-07T10:22:34;101218.16;;;3.44;88.59
4273;BME280;63887;53.656;9.810;2022-12-07T10:25:07;101213.97;;;3.35;88.83
4273;BME280;63887;53.656;9.810;2022-12-07T10:27:34;101223.38;;;3.42;88.17
4273;BME280;63887;53.656;9.810;2022-12-07T10:30:01;101222.53;;;3.39;88.32
4273;BME280;63887;53.656;9.810;2022-12-07T10:32:34;101218.94;;;3.47;87.29
4273;BME280;63887;53.656;9.810;2022-12-07T10:35:18;101213.63;;;3.53;87.17
4273;BME280;63887;53.656;9.810;2022-12-07T10:37:45;101214.16;;;3.72;85.37
4273;BME280;63887;53.656;9.810;2022-12-07T10:40:23;101216.00;;;3.66;86.51
4273;BME280;63887;53.656;9.810;2022-12-07T10:42:59;101209.16;;;3.62;86.90
4273;BME280;63887;53.656;9.810;2022-12-07T10:45:27;101212.69;;;3.59;86.33
4273;BME280;63887;53.656;9.810;2022-12-07T10:47:55;101213.44;;;3.64;86.63
4273;BME280;63887;53.656;9.810;2022-12-07T10:50:38;101213.38;;;3.67;86.60
4273;BME280;63887;53.656;9.810;2022-12-07T10:53:12;101208.31;;;3.61;86.54
4273;BME280;63887;53.656;9.810;2022-12-07T10:55:44;101202.13;;;3.67;87.01
4273;BME280;63887;53.656;9.810;2022-12-07T10:58:17;101204.75;;;3.67;86.37
4273;BME280;63887;53.656;9.810;2022-12-07T11:00:50;101203.66;;;3.78;86.15
4273;BME280;63887;53.656;9.810;2022-12-07T11:03:35;101196.06;;;3.68;86.04
4273;BME280;63887;53.656;9.810;2022-12-07T11:06:06;101184.84;;;3.67;85.61
4273;BME280;63887;53.656;9.810;2022-12-07T11:08:38;101192.63;;;3.67;86.14
4273;BME280;63887;53.656;9.810;2022-12-07T11:11:08;101190.75;;;3.75;85.35
4273;BME280;63887;53.656;9.810;2022-12-07T11:13:37;101194.25;;;3.73;85.76
4273;BME280;63887;53.656;9.810;2022-12-07T11:16:23;101193.44;;;3.69;85.50
4273;BME280;63887;53.656;9.810;2022-12-07T11:19:06;101190.69;;;3.78;85.13
4273;BME280;63887;53.656;9.810;2022-12-07T11:21:38;101189.78;;;3.79;84.93
4273;BME280;63887;53.656;9.810;2022-12-07T11:24:10;101184.69;;;3.75;84.74
4273;BME280;63887;53.656;9.810;2022-12-07T11:26:41;101187.06;;;3.87;84.82
4273;BME280;63887;53.656;9.810;2022-12-07T11:29:18;101183.53;;;3.89;84.34
4273;BME280;63887;53.656;9.810;2022-12-07T11:31:52;101186.91;;;3.93;84.04
4273;BME280;63887;53.656;9.810;2022-12-07T11:34:22;101176.81;;;3.79;84.11
4273;BME280;63887;53.656;9.810;2022-12-07T11:36:53;101181.00;;;3.85;84.39
4273;BME280;63887;53.656;9.810;2022-12-07T11:39:22;101185.16;;;3.95;82.78
4273;BME280;63887;53.656;9.810;2022-12-07T11:41:52;101177.22;;;4.01;82.66
4273;BME280;63887;53.656;9.810;2022-12-07T11:44:24;101168.56;;;4.01;83.02
4273;BME280;63887;53.656;9.810;2022-12-07T11:46:55;101167.53;;;4.09;82.00
4273;BME280;63887;53.656;9.810;2022-12-07T11:49:26;101169.34;;;4.06;82.34
4273;BME280;63887;53.656;9.810;2022-12-07T11:51:54;101169.41;;;4.04;82.50
4273;BME280;63887;53.656;9.810;2022-12-07T11:54:24;101165.97;;;4.01;83.31
4273;BME280;63887;53.656;9.810;2022-12-07T11:56:52;101171.03;;;4.08;82.42
4273;BME280;63887;53.656;9.810;2022-12-07T11:59:22;101168.63;;;3.99;83.41
4273;BME280;63887;53.656;9.810;2022-12-07T12:01:55;101166.09;;;3.96;83.35
4273;BME280;63887;53.656;9.810;2022-12-07T12:04:31;101167.78;;;3.97;83.74
4273;BME280;63887;53.656;9.810;2022-12-07T12:06:59;101164.06;;;4.10;81.83
4273;BME280;63887;53.656;9.810;2022-12-07T12:09:26;101166.84;;;4.03;81.59
4273;BME280;63887;53.656;9.810;2022-12-07T12:12:12;101163.38;;;4.02;80.83
4273;BME280;63887;53.656;9.810;2022-12-07T12:14:45;101171.44;;;3.88;81.85
4273;BME280;63887;53.656;9.810;2022-12-07T12:17:25;101169.06;;;3.78;82.00
4273;BME280;63887;53.656;9.810;2022-12-07T12:19:59;101171.75;;;3.72;82.92
4273;BME280;63887;53.656;9.810;2022-12-07T12:22:26;101170.09;;;3.69;82.62
4273;BME280;63887;53.656;9.810;2022-12-07T12:24:54;101167.47;;;3.71;83.21
4273;BME280;63887;53.656;9.810;2022-12-07T12:27:21;101166.41;;;3.81;82.79
4273;BME280;63887;53.656;9.810;2022-12-07T12:29:51;101164.41;;;3.94;81.89
4273;BME280;63887;53.656;9.810;2022-12-07T12:32:19;101170.44;;;3.96;81.11
4273;BME280;63887;53.656;9.810;2022-12-07T12:35:00;101161.75;;;3.97;82.13
4273;BME280;63887;53.656;9.810;2022-12-07T12:37:38;101166.75;;;4.06;80.40
4273;BME280;63887;53.656;9.810;2022-12-07T12:40:23;101162.25;;;4.14;80.82
4273;BME280;63887;53.656;9.810;2022-12-07T12:43:02;101163.38;;;4.01;81.31
4273;BME280;63887;53.656;9.810;2022-12-07T12:45:33;101158.97;;;4.06;81.05
4273;BME280;63887;53.656;9.810;2022-12-07T12:48:00;101164.28;;;4.00;81.71
4273;BME280;63887;53.656;9.810;2022-12-07T12:50:29;101167.00;;;3.94;82.15
4273;BME280;63887;53.656;9.810;2022-12-07T12:53:02;101168.63;;;3.99;80.89
4273;BME280;63887;53.656;9.810;2022-12-07T12:58:36;101152.16;;;4.02;79.63
4273;BME280;63887;53.656;9.810;2022-12-07T13:03:52;101157.06;;;4.14;75.98
4273;BME280;63887;53.656;9.810;2022-12-07T13:06:30;101157.94;;;4.13;75.60
4273;BME280;63887;53.656;9.810;2022-12-07T13:08:58;101156.16;;;4.15;75.98
4273;BME280;63887;53.656;9.810;2022-12-07T13:11:28;101153.38;;;4.24;74.85
4273;BME280;63887;53.656;9.810;2022-12-07T13:16:40;101155.84;;;4.29;74.04
4273;BME280;63887;53.656;9.810;2022-12-07T13:24:48;101157.78;;;4.58;68.10
4273;BME280;63887;53.656;9.810;2022-12-07T13:27:15;101158.34;;;4.70;66.18
4273;BME280;63887;53.656;9.810;2022-12-07T13:29:42;101158.63;;;4.58;66.12
4273;BME280;63887;53.656;9.810;2022-12-07T13:32:17;101149.75;;;4.68;63.89
4273;BME280;63887;53.656;9.810;2022-12-07T13:34:48;101161.50;;;4.47;64.40